sensor_id;sensor_type;location;lat;lon;timestamp;pressure;altitude;pressure_sealevel;temperature;humidity
72636;BME280;60679;48.888;15.544;2023-02-11T00:01:23;97872.84;;;-4.06;59.77
72636;BME280;60679;48.888;15.544;2023-02-11T00:03:49;97877.00;;;-4.02;59.52
72636;BME280;60679;48.888;15.544;2023-02-11T00:06:15;97878.97;;;-4.05;59.50
72636;BME280;60679;48.888;15.544;2023-02-11T00:08:41;97880.75;;;-4.06;59.67
72636;BME280;60679;48.888;15.544;2023-02-11T00:11:07;97875.66;;;-4.09;59.75
72636;BME280;60679;48.888;15.544;2023-02-11T00:13:32;97880.09;;;-4.10;59.63
72636;BME280;60679;48.888;15.544;2023-02-11T00:15:58;97880.19;;;-4.11;59.64
72636;BME280;60679;48.888;15.544;2023-02-11T00:18:23;97876.97;;;-4.30;59.94
72636;BME280;60679;48.888;15.544;2023-02-11T00:20:49;97869.06;;;-4.30;60.27
72636;BME280;60679;48.888;15.544;2023-02-11T00:23:14;97870.50;;;-4.25;59.80
72636;BME280;60679;48.888;15.544;2023-02-11T00:25:41;97867.56;;;-4.20;60.05
72636;BME280;60679;48.888;15.544;2023-02-11T00:28:08;97860.97;;;-4.13;59.86
72636;BME280;60679;48.888;15.544;2023-02-11T00:30:33;97865.31;;;-4.12;59.96
72636;BME280;60679;48.888;15.544;2023-02-11T00:33:01;97864.38;;;-4.11;59.89
72636;BME280;60679;48.888;15.544;2023-02-11T00:35:27;97865.03;;;-4.22;60.26
72636;BME280;60679;48.888;15.544;2023-02-11T00:37:53;97862.88;;;-4.29;59.95
72636;BME280;60679;48.888;15.544;2023-02-11T00:40:19;97864.16;;;-4.36;60.39
72636;BME280;60679;48.888;15.544;2023-02-11T00:42:45;97861.53;;;-4.36;60.39
72636;BME280;60679;48.888;15.544;2023-02-11T00:45:11;97863.97;;;-4.33;60.24
72636;BME280;60679;48.888;15.544;2023-02-11T00:47:36;97868.41;;;-4.34;60.23
72636;BME280;60679;48.888;15.544;2023-02-11T00:50:03;97871.78;;;-4.32;60.22
72636;BME280;60679;48.888;15.544;2023-02-11T00:52:30;97878.09;;;-4.34;60.28
72636;BME280;60679;48.888;15.544;2023-02-11T00:54:56;97866.59;;;-4.47;60.20
72636;BME280;60679;48.888;15.544;2023-02-11T00:57:22;97865.19;;;-4.53;60.18
72636;BME280;60679;48.888;15.544;2023-02-11T00:59:47;97861.34;;;-4.47;60.23
72636;BME280;60679;48.888;15.544;2023-02-11T01:02:16;97859.91;;;-4.53;60.55
72636;BME280;60679;48.888;15.544;2023-02-11T01:04:42;97855.41;;;-4.51;60.20
72636;BME280;60679;48.888;15.544;2023-02-11T01:07:07;97863.78;;;-4.44;60.51
72636;BME280;60679;48.888;15.544;2023-02-11T01:09:33;97846.38;;;-4.47;60.60
72636;BME280;60679;48.888;15.544;2023-02-11T01:11:58;97848.91;;;-4.31;60.97
72636;BME280;60679;48.888;15.544;2023-02-11T01:14:24;97854.38;;;-4.06;60.63
72636;BME280;60679;48.888;15.544;2023-02-11T01:16:50;97845.16;;;-3.99;60.47
72636;BME280;60679;48.888;15.544;2023-02-11T01:19:16;97844.28;;;-3.85;60.44
72636;BME280;60679;48.888;15.544;2023-02-11T01:21:42;97848.88;;;-3.75;60.30
72636;BME280;60679;48.888;15.544;2023-02-11T01:24:07;97840.78;;;-3.72;60.21
72636;BME280;60679;48.888;15.544;2023-02-11T01:26:33;97827.13;;;-3.78;60.35
72636;BME280;60679;48.888;15.544;2023-02-11T01:28:58;97829.97;;;-3.81;60.60
72636;BME280;60679;48.888;15.544;2023-02-11T01:31:25;97833.63;;;-3.84;60.46
72636;BME280;60679;48.888;15.544;2023-02-11T01:33:51;97824.53;;;-3.92;60.57
72636;BME280;60679;48.888;15.544;2023-02-11T01:36:16;97823.75;;;-3.94;60.72
72636;BME280;60679;48.888;15.544;2023-02-11T01:38:42;97802.56;;;-3.93;60.55
72636;BME280;60679;48.888;15.544;2023-02-11T01:41:10;97813.88;;;-3.91;60.76
72636;BME280;60679;48.888;15.544;2023-02-11T01:43:39;97807.28;;;-3.98;60.45
72636;BME280;60679;48.888;15.544;2023-02-11T01:48:54;97789.28;;;-4.05;60.83
72636;BME280;60679;48.888;15.544;2023-02-11T01:51:26;97791.00;;;-4.04;61.07
72636;BME280;60679;48.888;15.544;2023-02-11T01:53:54;97794.38;;;-4.02;60.92
72636;BME280;60679;48.888;15.544;2023-02-11T01:56:41;97793.69;;;-3.92;60.95
72636;BME280;60679;48.888;15.544;2023-02-11T01:59:35;97798.88;;;-3.90;61.04
72636;BME280;60679;48.888;15.544;2023-02-11T02:02:07;97796.13;;;-3.89;60.83
72636;BME280;60679;48.888;15.544;2023-02-11T02:04:40;97790.47;;;-3.83;60.61
72636;BME280;60679;48.888;15.544;2023-02-11T02:07:29;97788.22;;;-3.89;60.75
72636;BME280;60679;48.888;15.544;2023-02-11T02:10:02;97786.47;;;-4.02;60.49
72636;BME280;60679;48.888;15.544;2023-02-11T02:12:28;97779.97;;;-4.11;61.17
72636;BME280;60679;48.888;15.544;2023-02-11T02:15:25;97768.53;;;-4.24;61.07
72636;BME280;60679;48.888;15.544;2023-02-11T02:23:46;97749.78;;;-4.48;61.36
72636;BME280;60679;48.888;15.544;2023-02-11T02:26:42;97749.72;;;-4.46;61.62
72636;BME280;60679;48.888;15.544;2023-02-11T02:32:42;97731.34;;;-4.34;61.40
72636;BME280;60679;48.888;15.544;2023-02-11T02:40:13;97714.78;;;-4.09;61.47
72636;BME280;60679;48.888;15.544;2023-02-11T02:42:41;97716.66;;;-3.97;61.09
72636;BME280;60679;48.888;15.544;2023-02-11T02:45:10;97714.28;;;-3.87;61.33
72636;BME280;60679;48.888;15.544;2023-02-11T02:47:36;97712.34;;;-3.71;61.16
72636;BME280;60679;48.888;15.544;2023-02-11T02:50:03;97710.03;;;-3.63;61.17
72636;BME280;60679;48.888;15.544;2023-02-11T02:55:17;97698.72;;;-3.65;61.38
72636;BME280;60679;48.888;15.544;2023-02-11T03:03:42;97688.88;;;-3.36;61.23
72636;BME280;60679;48.888;15.544;2023-02-11T03:06:52;97686.47;;;-3.14;61.12
72636;BME280;60679;48.888;15.544;2023-02-11T03:09:42;97694.59;;;-3.05;60.78
72636;BME280;60679;48.888;15.544;2023-02-11T03:12:11;97702.97;;;-2.98;61.12
72636;BME280;60679;48.888;15.544;2023-02-11T03:14:39;97707.31;;;-2.97;61.25
72636;BME280;60679;48.888;15.544;2023-02-11T03:17:07;97715.31;;;-2.99;60.88
72636;BME280;60679;48.888;15.544;2023-02-11T03:19:36;97713.72;;;-3.01;61.05
72636;BME280;60679;48.888;15.544;2023-02-11T03:22:07;97714.91;;;-3.05;60.81
72636;BME280;60679;48.888;15.544;2023-02-11T03:24:40;97722.91;;;-3.07;60.88
72636;BME280;60679;48.888;15.544;2023-02-11T03:27:11;97722.41;;;-3.12;61.19
72636;BME280;60679;48.888;15.544;2023-02-11T03:32:33;97713.81;;;-3.15;61.09
72636;BME280;60679;48.888;15.544;2023-02-11T03:35:14;97711.91;;;-3.26;61.41
72636;BME280;60679;48.888;15.544;2023-02-11T03:37:50;97712.53;;;-3.35;61.17
72636;BME280;60679;48.888;15.544;2023-02-11T03:40:26;97707.56;;;-3.39;61.44
72636;BME280;60679;48.888;15.544;2023-02-11T03:43:15;97697.28;;;-3.44;61.34
72636;BME280;60679;48.888;15.544;2023-02-11T03:45:44;97697.63;;;-3.48;61.04
72636;BME280;60679;48.888;15.544;2023-02-11T03:48:18;97691.69;;;-3.52;61.38
72636;BME280;60679;48.888;15.544;2023-02-11T03:50:47;97697.09;;;-3.54;61.19
72636;BME280;60679;48.888;15.544;2023-02-11T03:53:18;97698.13;;;-3.56;61.52
72636;BME280;60679;48.888;15.544;2023-02-11T03:55:46;97696.44;;;-3.57;61.35
72636;BME280;60679;48.888;15.544;2023-02-11T03:58:13;97689.91;;;-3.52;61.80
72636;BME280;60679;48.888;15.544;2023-02-11T04:00:40;97685.59;;;-3.40;61.69
72636;BME280;60679;48.888;15.544;2023-02-11T04:03:07;97669.22;;;-3.32;61.72
72636;BME280;60679;48.888;15.544;2023-02-11T04:05:32;97655.72;;;-3.28;61.53
72636;BME280;60679;48.888;15.544;2023-02-11T04:07:58;97675.88;;;-3.27;61.53
72636;BME280;60679;48.888;15.544;2023-02-11T04:10:24;97673.38;;;-3.28;61.37
72636;BME280;60679;48.888;15.544;2023-02-11T04:12:49;97661.09;;;-3.29;61.36
72636;BME280;60679;48.888;15.544;2023-02-11T04:15:15;97673.03;;;-3.24;61.59
72636;BME280;60679;48.888;15.544;2023-02-11T04:17:40;97672.09;;;-3.23;61.61
72636;BME280;60679;48.888;15.544;2023-02-11T04:20:07;97674.53;;;-3.20;61.52
72636;BME280;60679;48.888;15.544;2023-02-11T04:22:33;97673.88;;;-3.23;61.87
72636;BME280;60679;48.888;15.544;2023-02-11T04:24:58;97670.72;;;-3.28;61.46
72636;BME280;60679;48.888;15.544;2023-02-11T04:27:24;97663.75;;;-3.42;61.34
72636;BME280;60679;48.888;15.544;2023-02-11T04:29:50;97665.41;;;-3.54;61.38
72636;BME280;60679;48.888;15.544;2023-02-11T04:32:15;97659.59;;;-3.59;61.92
72636;BME280;60679;48.888;15.544;2023-02-11T04:34:41;97664.13;;;-3.61;61.75
72636;BME280;60679;48.888;15.544;2023-02-11T04:37:06;97649.03;;;-3.59;61.52
72636;BME280;60679;48.888;15.544;2023-02-11T04:39:33;97658.88;;;-3.48;62.01
72636;BME280;60679;48.888;15.544;2023-02-11T04:41:58;97651.38;;;-3.41;61.74
72636;BME280;60679;48.888;15.544;2023-02-11T04:44:24;97653.50;;;-3.34;61.74
72636;BME280;60679;48.888;15.544;2023-02-11T04:46:50;97647.03;;;-3.30;61.90
72636;BME280;60679;48.888;15.544;2023-02-11T04:49:16;97639.78;;;-3.26;61.64
72636;BME280;60679;48.888;15.544;2023-02-11T04:51:42;97638.81;;;-3.25;61.78
72636;BME280;60679;48.888;15.544;2023-02-11T04:54:11;97634.91;;;-3.32;61.67
72636;BME280;60679;48.888;15.544;2023-02-11T04:56:38;97640.31;;;-3.34;61.99
72636;BME280;60679;48.888;15.544;2023-02-11T04:59:04;97617.47;;;-3.35;61.92
72636;BME280;60679;48.888;15.544;2023-02-11T05:01:29;97627.31;;;-3.37;61.65
72636;BME280;60679;48.888;15.544;2023-02-11T05:03:55;97625.09;;;-3.43;61.85
72636;BME280;60679;48.888;15.544;2023-02-11T05:06:21;97619.06;;;-3.32;62.09
72636;BME280;60679;48.888;15.544;2023-02-11T05:08:47;97610.09;;;-3.17;62.15
72636;BME280;60679;48.888;15.544;2023-02-11T05:11:21;97617.38;;;-3.08;61.73
72636;BME280;60679;48.888;15.544;2023-02-11T05:13:47;97605.94;;;-2.96;61.79
72636;BME280;60679;48.888;15.544;2023-02-11T05:16:16;97602.16;;;-2.92;61.83
72636;BME280;60679;48.888;15.544;2023-02-11T05:18:42;97595.59;;;-2.86;61.68
72636;BME280;60679;48.888;15.544;2023-02-11T05:21:09;97601.38;;;-2.81;61.70
72636;BME280;60679;48.888;15.544;2023-02-11T05:23:35;97591.66;;;-2.81;61.59
72636;BME280;60679;48.888;15.544;2023-02-11T05:26:01;97588.94;;;-2.79;62.00
72636;BME280;60679;48.888;15.544;2023-02-11T05:28:28;97588.81;;;-2.78;61.75
72636;BME280;60679;48.888;15.544;2023-02-11T05:30:53;97581.09;;;-2.81;61.54
72636;BME280;60679;48.888;15.544;2023-02-11T05:33:19;97583.22;;;-2.86;61.63
72636;BME280;60679;48.888;15.544;2023-02-11T05:35:45;97578.66;;;-2.84;61.67
72636;BME280;60679;48.888;15.544;2023-02-11T05:38:10;97580.38;;;-2.83;61.72
72636;BME280;60679;48.888;15.544;2023-02-11T05:40:38;97574.88;;;-2.80;61.96
72636;BME280;60679;48.888;15.544;2023-02-11T05:43:03;97573.66;;;-2.76;61.88
72636;BME280;60679;48.888;15.544;2023-02-11T05:45:29;97557.59;;;-2.73;61.93
72636;BME280;60679;48.888;15.544;2023-02-11T05:47:54;97560.16;;;-2.71;61.72
72636;BME280;60679;48.888;15.544;2023-02-11T05:50:20;97548.28;;;-2.66;61.62
72636;BME280;60679;48.888;15.544;2023-02-11T05:53:04;97552.28;;;-2.60;61.77
72636;BME280;60679;48.888;15.544;2023-02-11T05:55:30;97543.91;;;-2.54;61.38
72636;BME280;60679;48.888;15.544;2023-02-11T05:57:56;97541.00;;;-2.51;61.91
72636;BME280;60679;48.888;15.544;2023-02-11T06:00:21;97540.34;;;-2.42;61.44
72636;BME280;60679;48.888;15.544;2023-02-11T06:02:47;97537.63;;;-2.41;61.68
72636;BME280;60679;48.888;15.544;2023-02-11T06:05:16;97540.97;;;-2.39;61.87
72636;BME280;60679;48.888;15.544;2023-02-11T06:07:41;97544.56;;;-2.40;61.82
72636;BME280;60679;48.888;15.544;2023-02-11T06:10:07;97545.84;;;-2.45;61.85
72636;BME280;60679;48.888;15.544;2023-02-11T06:12:33;97543.44;;;-2.48;61.82
72636;BME280;60679;48.888;15.544;2023-02-11T06:15:00;97543.66;;;-2.51;62.07
72636;BME280;60679;48.888;15.544;2023-02-11T06:17:28;97546.94;;;-2.48;62.02
72636;BME280;60679;48.888;15.544;2023-02-11T06:19:57;97551.06;;;-2.44;62.02
72636;BME280;60679;48.888;15.544;2023-02-11T06:22:22;97559.25;;;-2.36;61.82
72636;BME280;60679;48.888;15.544;2023-02-11T06:24:48;97573.66;;;-2.40;61.78
72636;BME280;60679;48.888;15.544;2023-02-11T06:27:13;97558.53;;;-2.38;61.63
72636;BME280;60679;48.888;15.544;2023-02-11T06:29:39;97572.84;;;-2.40;61.62
72636;BME280;60679;48.888;15.544;2023-02-11T06:32:04;97562.97;;;-2.38;61.66
72636;BME280;60679;48.888;15.544;2023-02-11T06:34:30;97571.31;;;-2.31;61.70
72636;BME280;60679;48.888;15.544;2023-02-11T06:36:55;97568.81;;;-2.22;61.83
72636;BME280;60679;48.888;15.544;2023-02-11T06:39:21;97563.81;;;-2.14;61.60
72636;BME280;60679;48.888;15.544;2023-02-11T06:41:46;97551.81;;;-2.07;61.57
72636;BME280;60679;48.888;15.544;2023-02-11T06:44:12;97545.09;;;-2.00;61.44
72636;BME280;60679;48.888;15.544;2023-02-11T06:46:37;97543.72;;;-1.82;61.54
72636;BME280;60679;48.888;15.544;2023-02-11T06:49:03;97542.31;;;-1.63;61.38
72636;BME280;60679;48.888;15.544;2023-02-11T06:51:28;97538.72;;;-1.51;61.15
72636;BME280;60679;48.888;15.544;2023-02-11T06:53:54;97538.03;;;-1.42;61.10
72636;BME280;60679;48.888;15.544;2023-02-11T06:56:21;97541.88;;;-1.35;61.31
72636;BME280;60679;48.888;15.544;2023-02-11T06:58:51;97563.34;;;-1.27;60.83
72636;BME280;60679;48.888;15.544;2023-02-11T07:01:18;97561.88;;;-1.20;60.87
72636;BME280;60679;48.888;15.544;2023-02-11T07:03:44;97558.16;;;-1.06;61.10
72636;BME280;60679;48.888;15.544;2023-02-11T07:06:16;97556.81;;;-0.90;61.05
72636;BME280;60679;48.888;15.544;2023-02-11T07:08:43;97548.75;;;-0.77;60.90
72636;BME280;60679;48.888;15.544;2023-02-11T07:11:28;97548.97;;;-0.69;60.91
72636;BME280;60679;48.888;15.544;2023-02-11T07:13:58;97543.53;;;-0.56;60.87
72636;BME280;60679;48.888;15.544;2023-02-11T07:16:24;97542.19;;;-0.40;60.58
72636;BME280;60679;48.888;15.544;2023-02-11T07:18:50;97529.34;;;-0.24;60.31
72636;BME280;60679;48.888;15.544;2023-02-11T07:21:18;97515.06;;;-0.12;60.18
72636;BME280;60679;48.888;15.544;2023-02-11T07:23:44;97516.81;;;-0.01;60.21
72636;BME280;60679;48.888;15.544;2023-02-11T07:26:11;97513.72;;;0.15;59.86
72636;BME280;60679;48.888;15.544;2023-02-11T07:28:40;97511.94;;;0.45;59.57
72636;BME280;60679;48.888;15.544;2023-02-11T07:31:21;97513.19;;;0.62;59.24
72636;BME280;60679;48.888;15.544;2023-02-11T07:33:47;97509.19;;;0.77;59.20
72636;BME280;60679;48.888;15.544;2023-02-11T07:36:15;97500.56;;;0.85;59.15
72636;BME280;60679;48.888;15.544;2023-02-11T07:38:44;97507.28;;;0.89;59.08
72636;BME280;60679;48.888;15.544;2023-02-11T07:41:14;97495.97;;;0.96;59.06
72636;BME280;60679;48.888;15.544;2023-02-11T07:43:40;97493.09;;;1.09;58.87
72636;BME280;60679;48.888;15.544;2023-02-11T07:46:15;97497.34;;;1.31;58.60
72636;BME280;60679;48.888;15.544;2023-02-11T07:48:40;97506.66;;;1.46;58.31
72636;BME280;60679;48.888;15.544;2023-02-11T07:51:18;97512.13;;;1.54;58.31
72636;BME280;60679;48.888;15.544;2023-02-11T07:53:45;97513.09;;;1.53;58.30
72636;BME280;60679;48.888;15.544;2023-02-11T07:56:17;97517.88;;;1.49;58.46
72636;BME280;60679;48.888;15.544;2023-02-11T07:58:43;97517.56;;;1.43;58.39
72636;BME280;60679;48.888;15.544;2023-02-11T08:01:16;97529.06;;;1.43;58.56
72636;BME280;60679;48.888;15.544;2023-02-11T08:03:41;97544.06;;;1.54;58.23
72636;BME280;60679;48.888;15.544;2023-02-11T08:06:12;97548.53;;;1.53;58.15
72636;BME280;60679;48.888;15.544;2023-02-11T08:08:38;97557.47;;;1.43;58.41
72636;BME280;60679;48.888;15.544;2023-02-11T08:11:17;97552.00;;;1.35;58.82
72636;BME280;60679;48.888;15.544;2023-02-11T08:13:43;97542.41;;;1.23;58.84
72636;BME280;60679;48.888;15.544;2023-02-11T08:16:25;97552.75;;;1.16;59.07
72636;BME280;60679;48.888;15.544;2023-02-11T08:18:52;97566.34;;;1.23;59.09
72636;BME280;60679;48.888;15.544;2023-02-11T08:21:19;97557.03;;;1.38;58.63
72636;BME280;60679;48.888;15.544;2023-02-11T08:23:47;97544.47;;;1.49;58.49
72636;BME280;60679;48.888;15.544;2023-02-11T08:26:18;97538.88;;;1.52;58.46
72636;BME280;60679;48.888;15.544;2023-02-11T08:28:50;97552.03;;;1.54;58.51
72636;BME280;60679;48.888;15.544;2023-02-11T08:31:19;97549.81;;;1.49;58.51
72636;BME280;60679;48.888;15.544;2023-02-11T08:33:45;97550.78;;;1.48;58.67
72636;BME280;60679;48.888;15.544;2023-02-11T08:36:22;97542.28;;;1.73;58.36
72636;BME280;60679;48.888;15.544;2023-02-11T08:38:48;97556.91;;;2.27;57.07
72636;BME280;60679;48.888;15.544;2023-02-11T08:41:14;97553.09;;;2.68;56.54
72636;BME280;60679;48.888;15.544;2023-02-11T08:43:41;97541.78;;;2.93;56.25
72636;BME280;60679;48.888;15.544;2023-02-11T08:46:08;97538.41;;;3.28;55.63
72636;BME280;60679;48.888;15.544;2023-02-11T08:48:34;97531.97;;;3.58;55.11
72636;BME280;60679;48.888;15.544;2023-02-11T08:50:59;97528.22;;;3.68;55.04
72636;BME280;60679;48.888;15.544;2023-02-11T08:53:25;97528.78;;;3.72;54.89
72636;BME280;60679;48.888;15.544;2023-02-11T08:55:54;97523.34;;;3.64;55.26
72636;BME280;60679;48.888;15.544;2023-02-11T08:58:21;97523.44;;;3.44;55.42
72636;BME280;60679;48.888;15.544;2023-02-11T09:00:52;97536.69;;;3.36;55.46
72636;BME280;60679;48.888;15.544;2023-02-11T09:03:17;97538.94;;;3.41;55.43
72636;BME280;60679;48.888;15.544;2023-02-11T09:05:45;97539.28;;;3.56;55.39
72636;BME280;60679;48.888;15.544;2023-02-11T09:08:12;97535.91;;;3.54;55.62
72636;BME280;60679;48.888;15.544;2023-02-11T09:10:38;97535.78;;;3.55;55.50
72636;BME280;60679;48.888;15.544;2023-02-11T09:13:04;97533.19;;;3.63;55.24
72636;BME280;60679;48.888;15.544;2023-02-11T09:15:30;97530.94;;;3.86;55.06
72636;BME280;60679;48.888;15.544;2023-02-11T09:17:56;97532.16;;;3.91;54.78
72636;BME280;60679;48.888;15.544;2023-02-11T09:20:22;97531.94;;;4.20;54.38
72636;BME280;60679;48.888;15.544;2023-02-11T09:22:47;97534.25;;;4.76;53.33
72636;BME280;60679;48.888;15.544;2023-02-11T09:25:13;97529.53;;;4.96;53.08
72636;BME280;60679;48.888;15.544;2023-02-11T09:27:38;97538.13;;;4.82;53.38
72636;BME280;60679;48.888;15.544;2023-02-11T09:30:04;97539.31;;;4.61;53.66
72636;BME280;60679;48.888;15.544;2023-02-11T09:32:30;97548.63;;;4.57;53.87
72636;BME280;60679;48.888;15.544;2023-02-11T09:34:55;97540.13;;;4.80;53.53
72636;BME280;60679;48.888;15.544;2023-02-11T09:37:21;97537.19;;;5.16;52.84
72636;BME280;60679;48.888;15.544;2023-02-11T09:39:46;97529.25;;;6.57;50.53
72636;BME280;60679;48.888;15.544;2023-02-11T09:42:38;97521.13;;;8.75;48.01
72636;BME280;60679;48.888;15.544;2023-02-11T09:45:11;97523.31;;;8.57;48.28
72636;BME280;60679;48.888;15.544;2023-02-11T09:50:33;97522.16;;;7.98;49.12
72636;BME280;60679;48.888;15.544;2023-02-11T09:53:31;97526.00;;;8.57;48.09
72636;BME280;60679;48.888;15.544;2023-02-11T09:56:02;97525.59;;;9.49;46.77
72636;BME280;60679;48.888;15.544;2023-02-11T09:58:35;97528.09;;;9.65;46.76
72636;BME280;60679;48.888;15.544;2023-02-11T10:01:37;97534.91;;;9.47;47.27
72636;BME280;60679;48.888;15.544;2023-02-11T10:12:46;97511.78;;;11.64;44.12
72636;BME280;60679;48.888;15.544;2023-02-11T10:15:24;97516.13;;;10.33;46.00
72636;BME280;60679;48.888;15.544;2023-02-11T10:18:24;97507.25;;;10.60;45.50
72636;BME280;60679;48.888;15.544;2023-02-11T10:23:45;97506.19;;;10.61;45.42
72636;BME280;60679;48.888;15.544;2023-02-11T10:26:22;97507.25;;;10.60;45.09
72636;BME280;60679;48.888;15.544;2023-02-11T10:28:54;97490.06;;;10.68;44.81
72636;BME280;60679;48.888;15.544;2023-02-11T10:31:41;97485.88;;;10.65;44.87
72636;BME280;60679;48.888;15.544;2023-02-11T10:34:12;97489.03;;;9.91;45.71
72636;BME280;60679;48.888;15.544;2023-02-11T10:36:41;97497.06;;;9.25;46.62
72636;BME280;60679;48.888;15.544;2023-02-11T10:41:42;97479.84;;;8.14;47.94
72636;BME280;60679;48.888;15.544;2023-02-11T10:46:50;97491.22;;;7.63;48.50
72636;BME280;60679;48.888;15.544;2023-02-11T10:52:23;97487.47;;;7.41;48.19
72636;BME280;60679;48.888;15.544;2023-02-11T10:57:41;97483.53;;;7.13;48.79
72636;BME280;60679;48.888;15.544;2023-02-11T11:00:32;97476.41;;;6.65;49.37
72636;BME280;60679;48.888;15.544;2023-02-11T11:03:00;97476.59;;;6.31;49.97
72636;BME280;60679;48.888;15.544;2023-02-11T11:05:33;97485.16;;;6.35;49.82
72636;BME280;60679;48.888;15.544;2023-02-11T11:08:01;97477.22;;;6.90;48.76
72636;BME280;60679;48.888;15.544;2023-02-11T11:10:47;97479.25;;;7.35;48.14
72636;BME280;60679;48.888;15.544;2023-02-11T11:18:37;97449.91;;;8.18;47.06
72636;BME280;60679;48.888;15.544;2023-02-11T11:21:14;97457.75;;;9.02;45.68
72636;BME280;60679;48.888;15.544;2023-02-11T11:23:46;97450.88;;;9.14;45.64
72636;BME280;60679;48.888;15.544;2023-02-11T11:26:15;97442.13;;;9.41;45.17
72636;BME280;60679;48.888;15.544;2023-02-11T11:29:06;97443.06;;;10.62;43.28
72636;BME280;60679;48.888;15.544;2023-02-11T11:31:46;97432.44;;;11.50;42.40
72636;BME280;60679;48.888;15.544;2023-02-11T11:34:28;97423.84;;;13.71;39.68
72636;BME280;60679;48.888;15.544;2023-02-11T11:36:57;97415.09;;;15.01;38.67
72636;BME280;60679;48.888;15.544;2023-02-11T11:39:29;97420.31;;;14.78;38.74
72636;BME280;60679;48.888;15.544;2023-02-11T11:42:02;97413.56;;;12.50;42.08
72636;BME280;60679;48.888;15.544;2023-02-11T11:44:34;97408.75;;;11.66;43.14
72636;BME280;60679;48.888;15.544;2023-02-11T11:47:20;97409.94;;;11.50;42.99
72636;BME280;60679;48.888;15.544;2023-02-11T11:52:40;97413.19;;;9.50;46.14
72636;BME280;60679;48.888;15.544;2023-02-11T11:55:21;97403.38;;;9.27;46.10
72636;BME280;60679;48.888;15.544;2023-02-11T11:57:49;97399.47;;;9.80;45.22
72636;BME280;60679;48.888;15.544;2023-02-11T12:00:38;97391.13;;;11.70;42.18
72636;BME280;60679;48.888;15.544;2023-02-11T12:03:15;97371.00;;;11.92;42.14
72636;BME280;60679;48.888;15.544;2023-02-11T12:22:37;97393.97;;;8.50;47.25
72636;BME280;60679;48.888;15.544;2023-02-11T12:25:21;97400.84;;;7.93;47.78
72636;BME280;60679;48.888;15.544;2023-02-11T12:27:58;97413.78;;;7.67;48.41
72636;BME280;60679;48.888;15.544;2023-02-11T12:33:24;97440.88;;;7.18;48.72
72636;BME280;60679;48.888;15.544;2023-02-11T12:36:08;97445.63;;;7.00;48.84
72636;BME280;60679;48.888;15.544;2023-02-11T12:38:45;97452.38;;;6.88;49.21
72636;BME280;60679;48.888;15.544;2023-02-11T12:41:48;97439.81;;;6.72;49.21
72636;BME280;60679;48.888;15.544;2023-02-11T12:45:03;97444.38;;;6.56;49.54
72636;BME280;60679;48.888;15.544;2023-02-11T12:47:59;97439.34;;;6.45;49.91
72636;BME280;60679;48.888;15.544;2023-02-11T12:55:38;97442.91;;;6.21;49.80
72636;BME280;60679;48.888;15.544;2023-02-11T12:58:15;97432.00;;;5.98;50.16
72636;BME280;60679;48.888;15.544;2023-02-11T13:00:53;97443.34;;;5.84;50.35
72636;BME280;60679;48.888;15.544;2023-02-11T13:03:41;97446.50;;;5.79;50.52
72636;BME280;60679;48.888;15.544;2023-02-11T13:06:13;97428.25;;;5.83;50.36
72636;BME280;60679;48.888;15.544;2023-02-11T13:08:46;97419.56;;;5.81;50.19
72636;BME280;60679;48.888;15.544;2023-02-11T13:11:25;97420.03;;;5.84;50.30
72636;BME280;60679;48.888;15.544;2023-02-11T13:14:03;97415.53;;;5.77;50.62
72636;BME280;60679;48.888;15.544;2023-02-11T13:19:16;97407.13;;;5.56;50.53
72636;BME280;60679;48.888;15.544;2023-02-11T13:22:14;97394.22;;;5.67;50.49
72636;BME280;60679;48.888;15.544;2023-02-11T13:24:43;97396.63;;;5.78;50.27
72636;BME280;60679;48.888;15.544;2023-02-11T13:38:22;97403.66;;;5.88;50.27
72636;BME280;60679;48.888;15.544;2023-02-11T13:41:14;97386.75;;;6.19;49.71
72636;BME280;60679;48.888;15.544;2023-02-11T13:43:40;97391.75;;;6.30;50.05
72636;BME280;60679;48.888;15.544;2023-02-11T13:46:08;97392.09;;;6.35;49.92
72636;BME280;60679;48.888;15.544;2023-02-11T13:48:37;97396.28;;;6.30;49.96
72636;BME280;60679;48.888;15.544;2023-02-11T13:51:05;97395.97;;;6.25;50.13
72636;BME280;60679;48.888;15.544;2023-02-11T13:53:53;97398.34;;;6.04;50.58
72636;BME280;60679;48.888;15.544;2023-02-11T13:56:33;97395.75;;;5.78;51.22
72636;BME280;60679;48.888;15.544;2023-02-11T13:59:01;97396.75;;;5.61;51.28
72636;BME280;60679;48.888;15.544;2023-02-11T14:04:36;97408.00;;;5.22;52.09
72636;BME280;60679;48.888;15.544;2023-02-11T14:07:32;97401.31;;;5.10;52.37
72636;BME280;60679;48.888;15.544;2023-02-11T14:16:09;97402.53;;;4.82;52.88
72636;BME280;60679;48.888;15.544;2023-02-11T14:18:57;97397.63;;;4.78;53.18
72636;BME280;60679;48.888;15.544;2023-02-11T14:26:55;97390.66;;;4.85;53.22
72636;BME280;60679;48.888;15.544;2023-02-11T14:32:51;97394.81;;;4.79;53.61
72636;BME280;60679;48.888;15.544;2023-02-11T14:41:00;97405.22;;;4.56;54.31
72636;BME280;60679;48.888;15.544;2023-02-11T14:43:37;97391.63;;;4.50;54.40
72636;BME280;60679;48.888;15.544;2023-02-11T14:46:03;97402.50;;;4.48;54.25
72636;BME280;60679;48.888;15.544;2023-02-11T14:48:34;97403.19;;;4.50;54.62
72636;BME280;60679;48.888;15.544;2023-02-11T14:51:14;97412.88;;;4.51;54.81
72636;BME280;60679;48.888;15.544;2023-02-11T14:53:44;97419.00;;;4.44;54.76
72636;BME280;60679;48.888;15.544;2023-02-11T14:56:23;97418.16;;;4.43;54.74
72636;BME280;60679;48.888;15.544;2023-02-11T14:58:51;97418.63;;;4.39;55.00
72636;BME280;60679;48.888;15.544;2023-02-11T15:03:55;97417.69;;;4.22;55.65
72636;BME280;60679;48.888;15.544;2023-02-11T15:06:25;97414.03;;;4.23;55.75
72636;BME280;60679;48.888;15.544;2023-02-11T15:09:13;97414.84;;;4.24;55.80
72636;BME280;60679;48.888;15.544;2023-02-11T15:11:42;97431.06;;;4.22;55.94
72636;BME280;60679;48.888;15.544;2023-02-11T15:14:14;97429.38;;;4.21;55.89
72636;BME280;60679;48.888;15.544;2023-02-11T15:16:43;97434.34;;;4.16;55.89
72636;BME280;60679;48.888;15.544;2023-02-11T15:19:23;97427.97;;;4.09;56.36
72636;BME280;60679;48.888;15.544;2023-02-11T15:21:51;97424.56;;;4.07;56.44